Time;durP1;ratioP1;P1;durP2;ratioP2;P2;SDS_P1;SDS_P2;PMS_P1;PMS_P2;Temp;Humidity;BMP_temperature;BMP_pressure;BME280_temperature;BME280_humidity;BME280_pressure;Samples;Min_cycle;Max_cycle;Signal;HPM_P1;HPM_P2
2022/12/31 00:01:52;;;;;;;9.43;1.33;;;11.80;99.90;;;;;;5084496;28;20051;-57
2022/12/31 00:04:19;;;;;;;11.48;2.13;;;11.80;99.90;;;;;;5074832;28;20036;-52
2022/12/31 00:06:45;;;;;;;13.02;2.15;;;11.80;99.90;;;;;;5088204;28;20036;-54
2022/12/31 00:09:11;;;;;;;13.43;2.05;;;11.80;99.90;;;;;;5086442;28;20036;-48
2022/12/31 00:11:37;;;;;;;15.40;2.60;;;11.80;99.90;;;;;;5087276;28;20028;-54
2022/12/31 00:14:03;;;;;;;10.65;2.00;;;11.80;99.90;;;;;;5087233;28;20112;-53
2022/12/31 00:16:32;;;;;;;13.00;2.35;;;11.80;99.90;;;;;;5084894;28;20056;-49
2022/12/31 00:18:59;;;;;;;18.25;2.25;;;11.80;99.90;;;;;;5087659;28;20649;-50
2022/12/31 00:21:28;;;;;;;11.40;2.38;;;11.80;99.90;;;;;;5085745;28;20063;-49
2022/12/31 00:23:54;;;;;;;19.55;2.28;;;11.80;99.90;;;;;;5088106;28;20051;-56
2022/12/31 00:26:23;;;;;;;12.00;1.92;;;11.80;99.90;;;;;;5077452;28;20091;-48
2022/12/31 00:28:52;;;;;;;13.85;2.60;;;11.80;99.90;;;;;;5083785;28;20474;-50
2022/12/31 00:31:20;;;;;;;13.05;2.30;;;11.80;99.90;;;;;;5085597;28;20298;-49
2022/12/31 00:33:46;;;;;;;5.95;1.63;;;11.80;99.90;;;;;;5065851;28;20044;-52
2022/12/31 00:36:13;;;;;;;10.43;1.83;;;11.80;99.90;;;;;;5072478;28;20052;-53
2022/12/31 00:38:40;;;;;;;7.70;2.03;;;11.80;99.90;;;;;;5076867;28;20483;-55
2022/12/31 00:41:07;;;;;;;8.98;1.75;;;11.80;99.90;;;;;;5080472;28;20056;-50
2022/12/31 00:43:33;;;;;;;15.18;2.53;;;11.80;99.90;;;;;;5072391;28;20090;-50
2022/12/31 00:46:00;;;;;;;8.20;2.33;;;11.80;99.90;;;;;;5074792;28;20048;-55
2022/12/31 00:48:26;;;;;;;6.43;1.55;;;11.90;99.90;;;;;;5084021;28;20036;-46
2022/12/31 00:50:53;;;;;;;6.72;1.67;;;11.90;99.90;;;;;;5082835;28;20040;-47
2022/12/31 00:53:19;;;;;;;12.95;2.55;;;11.90;99.90;;;;;;5072833;28;20075;-61
2022/12/31 00:55:45;;;;;;;8.40;1.88;;;11.90;99.90;;;;;;5080838;28;20044;-63
2022/12/31 00:58:11;;;;;;;12.73;2.30;;;11.90;99.90;;;;;;5084976;28;20563;-62
2022/12/31 01:00:37;;;;;;;11.35;2.10;;;11.90;99.90;;;;;;5085596;28;20079;-64
2022/12/31 01:03:04;;;;;;;13.20;1.98;;;11.90;99.90;;;;;;5076519;28;20040;-63
2022/12/31 01:05:32;;;;;;;15.65;1.88;;;11.90;99.90;;;;;;5078106;28;20123;-62
2022/12/31 01:07:58;;;;;;;17.83;2.80;;;11.90;99.90;;;;;;5090622;28;20044;-63
2022/12/31 01:13:08;;;;;;;18.25;3.65;;;11.90;99.90;;;;;;5088415;28;20036;-63
2022/12/31 01:15:36;;;;;;;13.75;2.70;;;11.90;99.90;;;;;;5087545;28;20056;-63
2022/12/31 01:18:03;;;;;;;16.23;2.75;;;12.00;99.90;;;;;;5085614;28;20045;-63
2022/12/31 01:20:30;;;;;;;20.55;3.22;;;11.90;99.90;;;;;;5089253;28;20050;-63
2022/12/31 01:22:56;;;;;;;17.95;3.15;;;11.90;99.90;;;;;;5088866;28;20432;-63
2022/12/31 01:25:21;;;;;;;20.13;3.05;;;12.00;99.90;;;;;;5087665;28;20047;-63
2022/12/31 01:27:47;;;;;;;5.75;1.42;;;11.90;99.90;;;;;;5087421;28;20409;-63
2022/12/31 01:30:13;;;;;;;16.25;2.78;;;11.90;99.90;;;;;;5084140;28;20051;-63
2022/12/31 01:32:38;;;;;;;20.65;4.70;;;11.90;99.90;;;;;;5086985;28;20040;-82
2022/12/31 01:35:05;;;;;;;14.55;2.65;;;11.90;99.90;;;;;;5086840;28;20127;-63
2022/12/31 01:37:31;;;;;;;17.65;2.92;;;11.90;99.90;;;;;;5089238;28;20426;-63
2022/12/31 01:39:56;;;;;;;19.95;2.97;;;11.90;99.90;;;;;;5088190;28;20032;-63
2022/12/31 01:42:22;;;;;;;17.73;2.85;;;11.90;99.90;;;;;;5087990;28;20047;-63
2022/12/31 01:44:52;;;;;;;15.27;2.88;;;11.90;99.90;;;;;;5088951;28;20548;-63
2022/12/31 01:47:26;;;;;;;23.02;3.90;;;11.90;99.90;;;;;;5087507;28;20046;-63
2022/12/31 01:49:58;;;;;;;14.18;3.30;;;11.90;99.90;;;;;;5087525;28;20040;-63
2022/12/31 01:52:31;;;;;;;14.07;2.65;;;11.80;99.90;;;;;;5074717;28;20582;-63
2022/12/31 01:55:08;;;;;;;14.75;2.78;;;11.80;99.90;;;;;;5090205;28;20040;-63
2022/12/31 01:57:36;;;;;;;14.75;3.08;;;11.80;99.90;;;;;;5076967;28;20439;-63
2022/12/31 02:00:02;;;;;;;18.95;3.95;;;11.80;99.90;;;;;;5087575;28;20031;-62
2022/12/31 02:02:28;;;;;;;14.70;3.20;;;11.80;99.90;;;;;;5083608;28;20117;-63
2022/12/31 02:04:56;;;;;;;15.13;2.45;;;11.80;99.90;;;;;;5088591;28;20079;-63
2022/12/31 02:07:23;;;;;;;10.27;2.30;;;11.80;99.90;;;;;;5089173;28;20032;-62
2022/12/31 02:09:49;;;;;;;12.48;2.22;;;11.80;99.90;;;;;;5080221;28;20036;-62
2022/12/31 02:12:14;;;;;;;10.02;2.28;;;11.70;99.90;;;;;;5083382;28;20044;-63
2022/12/31 02:14:46;;;;;;;15.85;2.42;;;11.70;99.90;;;;;;5073630;28;20040;-65
2022/12/31 02:17:31;;;;;;;8.85;2.58;;;11.70;99.90;;;;;;5081272;28;20490;-63
2022/12/31 02:20:34;;;;;;;7.30;1.48;;;11.70;99.90;;;;;;5077552;28;20048;-63
2022/12/31 02:23:12;;;;;;;7.90;2.10;;;11.70;99.90;;;;;;5086655;28;20471;-63
2022/12/31 02:25:41;;;;;;;9.82;1.95;;;11.70;99.90;;;;;;5080954;28;20047;-63
2022/12/31 02:28:34;;;;;;;10.48;2.40;;;11.60;99.90;;;;;;5089274;28;20048;-63
2022/12/31 02:31:17;;;;;;;5.68;1.92;;;11.60;99.90;;;;;;5087079;28;20047;-63
2022/12/31 02:33:50;;;;;;;9.10;2.22;;;11.60;99.90;;;;;;5087729;28;20499;-63
2022/12/31 02:36:22;;;;;;;6.45;2.08;;;11.60;99.90;;;;;;5078730;28;20044;-63
2022/12/31 02:38:49;;;;;;;10.93;2.58;;;11.60;99.90;;;;;;5078555;28;20093;-63
2022/12/31 02:44:26;;;;;;;13.40;2.55;;;11.50;99.90;;;;;;5073494;28;20549;-63
2022/12/31 02:47:07;;;;;;;7.35;2.55;;;11.50;99.90;;;;;;5073992;28;20083;-62
2022/12/31 02:49:51;;;;;;;8.13;2.72;;;11.50;99.90;;;;;;5081321;28;20105;-63
2022/12/31 02:52:40;;;;;;;11.40;2.60;;;11.50;99.90;;;;;;5086288;28;20075;-63
2022/12/31 02:55:18;;;;;;;12.95;3.00;;;11.40;99.90;;;;;;5084782;28;20051;-63
2022/12/31 02:58:05;;;;;;;9.32;2.78;;;11.40;99.90;;;;;;5078067;28;20143;-63
2022/12/31 03:03:20;;;;;;;10.43;3.38;;;11.30;99.90;;;;;;5088710;28;20067;-63
2022/12/31 03:05:48;;;;;;;8.65;3.38;;;11.30;99.90;;;;;;5080179;28;20036;-63
2022/12/31 03:08:22;;;;;;;7.22;2.25;;;11.30;99.90;;;;;;5088754;28;20490;-63
2022/12/31 03:10:47;;;;;;;6.25;2.53;;;11.30;99.90;;;;;;5070690;28;20494;-62
2022/12/31 03:13:13;;;;;;;8.45;3.28;;;11.30;99.90;;;;;;5060757;28;20052;-63
2022/12/31 03:15:39;;;;;;;5.53;2.42;;;11.20;99.90;;;;;;5074901;28;20273;-63
2022/12/31 03:18:14;;;;;;;7.90;2.65;;;11.30;99.90;;;;;;5086919;28;20036;-63
2022/12/31 03:23:35;;;;;;;12.68;3.25;;;11.20;99.90;;;;;;5087684;28;20072;-68
2022/12/31 03:26:10;;;;;;;6.78;2.70;;;11.20;99.90;;;;;;5080808;28;20131;-63
2022/12/31 03:28:37;;;;;;;12.88;2.70;;;11.20;99.90;;;;;;5088466;28;20509;-62
2022/12/31 03:31:04;;;;;;;10.57;2.90;;;11.20;99.90;;;;;;5085621;28;20044;-63
2022/12/31 03:33:39;;;;;;;6.25;2.10;;;11.20;99.90;;;;;;5088288;28;20078;-63
2022/12/31 03:36:11;;;;;;;10.00;2.97;;;11.20;99.90;;;;;;5085030;28;20385;-63
2022/12/31 03:38:36;;;;;;;8.13;2.75;;;11.20;99.90;;;;;;5086482;28;20040;-63
2022/12/31 03:41:02;;;;;;;6.60;2.17;;;11.20;99.90;;;;;;5086815;28;20119;-62
2022/12/31 03:43:28;;;;;;;12.10;2.47;;;11.20;99.90;;;;;;5086345;28;20079;-63
2022/12/31 03:45:54;;;;;;;7.15;2.85;;;11.20;99.90;;;;;;5088520;28;20044;-63
2022/12/31 03:48:21;;;;;;;5.15;2.17;;;11.20;99.90;;;;;;5073825;28;20032;-63
2022/12/31 03:50:47;;;;;;;7.25;2.03;;;11.10;99.90;;;;;;5088094;28;20145;-63
2022/12/31 03:53:13;;;;;;;5.70;2.05;;;11.10;99.90;;;;;;5086292;28;20565;-63
2022/12/31 03:55:39;;;;;;;8.13;3.05;;;11.10;99.90;;;;;;5087854;28;20132;-63
2022/12/31 03:58:05;;;;;;;5.10;2.10;;;11.10;99.90;;;;;;5076518;28;20044;-63
2022/12/31 04:00:31;;;;;;;8.20;2.30;;;11.10;99.90;;;;;;5086810;28;20067;-63
2022/12/31 04:02:57;;;;;;;8.70;2.97;;;11.00;99.90;;;;;;5082136;28;20653;-62
2022/12/31 04:05:23;;;;;;;9.48;2.00;;;11.00;99.90;;;;;;5086401;28;20127;-63
2022/12/31 04:07:51;;;;;;;5.78;2.15;;;11.00;99.90;;;;;;5084924;28;20051;-63
2022/12/31 04:10:17;;;;;;;7.05;1.98;;;11.00;99.90;;;;;;5069785;28;20457;-63
2022/12/31 04:12:44;;;;;;;4.50;1.63;;;11.00;99.90;;;;;;5081664;28;20505;-62
2022/12/31 04:15:15;;;;;;;4.40;1.45;;;11.00;99.90;;;;;;5077163;28;20059;-63
2022/12/31 04:17:41;;;;;;;5.60;1.20;;;10.90;99.90;;;;;;5087035;28;20039;-63
2022/12/31 04:20:08;;;;;;;6.88;1.33;;;10.90;99.90;;;;;;5077760;28;20504;-63
2022/12/31 04:22:34;;;;;;;10.75;1.77;;;10.90;99.90;;;;;;5085628;28;20047;-63
2022/12/31 04:24:59;;;;;;;5.35;1.35;;;10.80;99.90;;;;;;5087976;28;20044;-63
2022/12/31 04:27:25;;;;;;;3.60;1.25;;;10.80;99.90;;;;;;5085865;28;20052;-63
2022/12/31 04:29:51;;;;;;;4.60;0.90;;;10.80;99.90;;;;;;5081517;28;20093;-62
2022/12/31 04:32:17;;;;;;;6.30;1.23;;;10.80;99.90;;;;;;5078001;28;20044;-63
2022/12/31 04:34:43;;;;;;;13.05;2.38;;;10.80;99.90;;;;;;5086916;28;20467;-78
2022/12/31 04:37:08;;;;;;;2.60;1.00;;;10.80;99.90;;;;;;5080022;28;20040;-62
2022/12/31 04:39:34;;;;;;;7.05;1.45;;;10.70;99.90;;;;;;5083650;28;20044;-63
2022/12/31 04:42:00;;;;;;;6.90;1.10;;;10.70;99.90;;;;;;5078975;28;20043;-63
2022/12/31 04:44:25;;;;;;;4.13;1.40;;;10.70;99.90;;;;;;5089828;28;20044;-63
2022/12/31 04:46:51;;;;;;;9.45;0.98;;;10.70;99.90;;;;;;5086860;28;20048;-68
2022/12/31 04:49:18;;;;;;;4.18;0.82;;;10.70;99.90;;;;;;5090374;28;20126;-64
2022/12/31 04:51:43;;;;;;;7.18;1.33;;;10.70;99.90;;;;;;5091283;28;20040;-63
2022/12/31 04:54:09;;;;;;;6.97;1.23;;;10.80;99.90;;;;;;5089431;28;20046;-62
2022/12/31 04:56:35;;;;;;;7.07;1.45;;;10.80;99.90;;;;;;5088025;28;20047;-65
2022/12/31 04:59:02;;;;;;;3.22;0.95;;;10.80;99.90;;;;;;5079588;28;20052;-63
2022/12/31 05:01:27;;;;;;;5.47;1.10;;;10.80;99.90;;;;;;5061442;28;20087;-62
2022/12/31 05:03:53;;;;;;;6.57;1.20;;;10.80;99.90;;;;;;5090803;28;20075;-62
2022/12/31 05:06:21;;;;;;;4.70;0.90;;;10.80;99.90;;;;;;5089836;28;20040;-63
2022/12/31 05:08:48;;;;;;;4.47;1.00;;;10.80;99.90;;;;;;5058051;28;20044;-63
2022/12/31 05:11:14;;;;;;;3.63;0.90;;;10.70;99.90;;;;;;5076321;28;20044;-63
2022/12/31 05:13:40;;;;;;;3.28;0.60;;;10.70;99.90;;;;;;5089385;28;20136;-62
2022/12/31 05:16:06;;;;;;;2.78;0.93;;;10.70;99.90;;;;;;5090933;28;20119;-63
2022/12/31 05:18:33;;;;;;;2.53;0.90;;;10.70;99.90;;;;;;5088065;28;20079;-63
2022/12/31 05:20:59;;;;;;;5.63;1.10;;;10.70;99.90;;;;;;5076323;28;20110;-63
2022/12/31 05:23:24;;;;;;;4.80;0.82;;;10.70;99.90;;;;;;5089551;28;20584;-63
2022/12/31 05:25:52;;;;;;;5.07;0.80;;;10.70;99.90;;;;;;5090371;28;20056;-63
2022/12/31 05:28:18;;;;;;;5.85;1.10;;;10.70;99.90;;;;;;5087888;28;20416;-63
2022/12/31 05:30:47;;;;;;;4.30;1.02;;;10.60;99.90;;;;;;5079904;28;20055;-63
2022/12/31 05:33:13;;;;;;;2.35;0.90;;;10.70;99.90;;;;;;5089503;28;20481;-72
2022/12/31 05:35:39;;;;;;;5.28;1.20;;;10.60;99.90;;;;;;5089051;28;20048;-63
2022/12/31 05:38:05;;;;;;;5.80;1.10;;;10.70;99.90;;;;;;5089337;28;20500;-62
2022/12/31 05:40:30;;;;;;;5.60;1.85;;;10.60;99.90;;;;;;5065244;28;20048;-68
2022/12/31 05:42:56;;;;;;;4.78;1.08;;;10.60;99.90;;;;;;5076052;28;20383;-62
2022/12/31 05:45:22;;;;;;;8.18;1.38;;;10.60;99.90;;;;;;5087705;28;20067;-63
2022/12/31 05:47:48;;;;;;;6.55;1.00;;;10.60;99.90;;;;;;5090765;28;20051;-69
2022/12/31 05:50:14;;;;;;;5.50;1.17;;;10.60;99.90;;;;;;5091464;28;20052;-62
2022/12/31 05:52:41;;;;;;;6.25;1.77;;;10.60;99.90;;;;;;5078626;28;20406;-63
2022/12/31 05:55:07;;;;;;;7.07;1.63;;;10.60;99.90;;;;;;5087988;28;20076;-63
2022/12/31 05:57:33;;;;;;;5.60;1.35;;;10.60;99.90;;;;;;5086385;28;20101;-67
2022/12/31 05:59:59;;;;;;;9.85;1.60;;;10.60;99.90;;;;;;5088249;28;20044;-70
2022/12/31 06:02:24;;;;;;;9.77;1.58;;;10.70;99.90;;;;;;5081794;28;20122;-63
2022/12/31 06:04:50;;;;;;;2.97;1.20;;;10.60;99.90;;;;;;5088946;28;20089;-63
2022/12/31 06:07:16;;;;;;;5.78;1.45;;;10.60;99.90;;;;;;5074722;28;20032;-63
2022/12/31 06:09:42;;;;;;;6.70;1.70;;;10.70;99.90;;;;;;5063949;28;20441;-63
2022/12/31 06:12:08;;;;;;;7.05;1.35;;;10.70;99.90;;;;;;5082121;28;20051;-63
2022/12/31 06:14:34;;;;;;;4.13;1.55;;;10.70;99.90;;;;;;5074469;28;20043;-63
2022/12/31 06:17:00;;;;;;;6.40;1.50;;;10.70;99.90;;;;;;5089851;28;20055;-63
2022/12/31 06:19:26;;;;;;;6.15;1.20;;;10.80;99.90;;;;;;5088318;28;20505;-63
2022/12/31 06:21:53;;;;;;;7.38;1.65;;;10.70;99.90;;;;;;5088858;28;20083;-62
2022/12/31 06:24:19;;;;;;;7.05;1.30;;;10.80;99.90;;;;;;5082635;28;20048;-62
2022/12/31 06:26:44;;;;;;;9.10;1.70;;;10.70;99.90;;;;;;5089501;28;20052;-63
2022/12/31 06:29:10;;;;;;;5.75;1.27;;;10.70;99.90;;;;;;5089201;28;20040;-62
2022/12/31 06:31:36;;;;;;;5.88;1.58;;;10.70;99.90;;;;;;5087555;28;20503;-63
2022/12/31 06:34:03;;;;;;;3.47;1.23;;;10.70;99.90;;;;;;5084809;28;20123;-63
2022/12/31 06:36:29;;;;;;;8.15;2.08;;;10.70;99.90;;;;;;5087896;28;20123;-63
2022/12/31 06:38:54;;;;;;;2.20;0.80;;;10.60;99.90;;;;;;5089324;28;20502;-63
2022/12/31 06:41:21;;;;;;;6.18;0.73;;;10.60;99.90;;;;;;5087706;28;20119;-62
2022/12/31 06:43:47;;;;;;;7.07;0.88;;;10.60;99.90;;;;;;5088221;28;20119;-64
2022/12/31 06:46:15;;;;;;;2.15;0.55;;;10.50;99.90;;;;;;5088201;28;20051;-62
2022/12/31 06:48:43;;;;;;;3.72;0.60;;;10.40;99.90;;;;;;5089111;28;20047;-63
2022/12/31 06:51:17;;;;;;;1.35;0.35;;;10.30;99.90;;;;;;5088831;28;20077;-63
2022/12/31 06:53:46;;;;;;;4.10;0.70;;;10.30;99.90;;;;;;5087459;28;20040;-62
2022/12/31 06:56:20;;;;;;;1.65;0.52;;;10.30;99.90;;;;;;5076209;28;20110;-63
2022/12/31 06:58:47;;;;;;;3.67;0.68;;;10.20;99.90;;;;;;5086429;28;20040;-62
2022/12/31 07:01:47;;;;;;;3.45;0.60;;;10.20;99.90;;;;;;5084956;28;20055;-62
2022/12/31 07:04:37;;;;;;;4.85;0.65;;;10.20;99.90;;;;;;5072904;28;20100;-62
2022/12/31 07:07:15;;;;;;;7.20;0.80;;;10.20;99.90;;;;;;5076375;28;20494;-62
2022/12/31 07:09:51;;;;;;;4.65;0.63;;;10.10;99.90;;;;;;5076649;28;20044;-62
2022/12/31 07:12:39;;;;;;;3.15;0.85;;;10.20;99.90;;;;;;5082585;28;20516;-62
2022/12/31 07:15:15;;;;;;;11.65;0.90;;;10.20;99.90;;;;;;5087251;28;20050;-62
2022/12/31 07:17:47;;;;;;;3.30;0.82;;;10.10;99.90;;;;;;5089061;28;20044;-62
2022/12/31 07:20:16;;;;;;;6.43;0.77;;;10.20;99.90;;;;;;5078711;28;20484;-63
2022/12/31 07:22:43;;;;;;;6.60;0.80;;;10.10;99.90;;;;;;5085294;28;20040;-62
2022/12/31 07:25:13;;;;;;;8.20;0.88;;;10.20;99.90;;;;;;5087385;28;20143;-62
2022/12/31 07:28:03;;;;;;;3.85;0.90;;;10.20;99.90;;;;;;5084854;28;20105;-62
2022/12/31 07:30:35;;;;;;;2.58;0.47;;;10.20;99.90;;;;;;5078585;28;20181;-62
2022/12/31 07:33:44;;;;;;;5.15;0.80;;;10.20;99.90;;;;;;5085864;28;20060;-63
2022/12/31 07:36:23;;;;;;;7.68;1.20;;;10.20;99.90;;;;;;5087239;28;20048;-62
2022/12/31 07:39:09;;;;;;;1.52;1.00;;;10.30;99.90;;;;;;5088592;28;20457;-62
2022/12/31 07:42:12;;;;;;;6.03;1.05;;;10.30;99.90;;;;;;5079100;28;20050;-62
2022/12/31 07:44:51;;;;;;;6.60;1.23;;;10.40;99.90;;;;;;5087844;28;20052;-62
2022/12/31 07:47:25;;;;;;;3.90;1.70;;;10.40;99.90;;;;;;5088282;28;20059;-62
2022/12/31 07:49:51;;;;;;;9.02;2.10;;;10.40;99.90;;;;;;5085427;28;20067;-62
2022/12/31 07:52:17;;;;;;;6.15;1.75;;;10.50;99.90;;;;;;5082641;28;20470;-76
2022/12/31 07:54:43;;;;;;;6.00;1.70;;;10.50;99.90;;;;;;5086223;28;20048;-63
2022/12/31 07:57:12;;;;;;;4.85;1.45;;;10.50;99.90;;;;;;5088195;28;20390;-63
2022/12/31 08:00:01;;;;;;;6.65;1.45;;;10.50;99.90;;;;;;5087389;28;20074;-62
2022/12/31 08:02:49;;;;;;;5.97;1.92;;;10.50;99.90;;;;;;5073161;28;20504;-62
2022/12/31 08:05:41;;;;;;;4.88;1.90;;;10.50;99.90;;;;;;5087104;28;20642;-63
2022/12/31 08:08:22;;;;;;;4.53;1.77;;;10.50;99.90;;;;;;5086588;28;20086;-62
2022/12/31 08:11:06;;;;;;;3.75;1.38;;;10.50;99.90;;;;;;5076687;28;20085;-62
2022/12/31 08:13:32;;;;;;;6.50;2.15;;;10.50;99.90;;;;;;5086021;28;20467;-62
2022/12/31 08:15:59;;;;;;;4.97;1.30;;;10.50;99.90;;;;;;5084321;28;20060;-62
2022/12/31 08:18:25;;;;;;;3.50;1.30;;;10.50;99.90;;;;;;5087608;28;20051;-63
2022/12/31 08:20:53;;;;;;;1.90;0.93;;;10.50;99.90;;;;;;5086118;28;20052;-63
2022/12/31 08:23:35;;;;;;;6.05;1.10;;;10.50;99.90;;;;;;5080335;28;20083;-63
2022/12/31 08:26:13;;;;;;;3.67;1.20;;;10.50;99.90;;;;;;5082896;28;20523;-62
2022/12/31 08:28:56;;;;;;;2.75;0.90;;;10.50;99.90;;;;;;5086469;28;20460;-66
2022/12/31 08:31:43;;;;;;;2.50;0.68;;;10.50;99.90;;;;;;5085128;28;20044;-62
2022/12/31 08:34:24;;;;;;;7.20;0.85;;;10.50;99.90;;;;;;5074952;28;20070;-62
2022/12/31 08:36:57;;;;;;;2.67;1.02;;;10.50;99.90;;;;;;5086434;28;20524;-62
2022/12/31 08:39:34;;;;;;;0.77;0.77;;;10.50;99.90;;;;;;5087592;28;20334;-62
2022/12/31 08:42:03;;;;;;;5.22;0.85;;;10.50;99.90;;;;;;5077720;28;20133;-62
2022/12/31 08:44:37;;;;;;;1.33;0.50;;;10.50;99.90;;;;;;5080920;28;20508;-63
2022/12/31 08:47:32;;;;;;;0.75;0.60;;;10.50;99.90;;;;;;5077459;28;20111;-62
2022/12/31 08:49:58;;;;;;;0.60;0.35;;;10.50;99.90;;;;;;5083167;28;20048;-63
2022/12/31 08:52:25;;;;;;;3.05;0.60;;;10.50;99.90;;;;;;5073734;28;20057;-62
2022/12/31 08:54:52;;;;;;;1.13;0.50;;;10.50;99.90;;;;;;5084489;28;20048;-62
2022/12/31 08:57:33;;;;;;;2.17;1.55;;;10.50;99.90;;;;;;5086703;28;20056;-63
2022/12/31 09:00:26;;;;;;;6.75;1.90;;;10.50;99.90;;;;;;5066124;28;20029;-62
2022/12/31 09:02:59;;;;;;;4.13;2.03;;;10.60;99.90;;;;;;5081364;28;20063;-62
2022/12/31 09:05:31;;;;;;;7.25;1.67;;;10.50;99.90;;;;;;5085181;28;20505;-63
2022/12/31 09:08:03;;;;;;;1.60;1.50;;;10.60;99.90;;;;;;5083979;28;20102;-62
2022/12/31 09:10:38;;;;;;;2.72;1.50;;;10.60;99.90;;;;;;5086263;28;20367;-71
2022/12/31 09:13:23;;;;;;;7.22;1.92;;;10.70;99.90;;;;;;5067800;28;20368;-62
2022/12/31 09:15:58;;;;;;;2.88;1.52;;;10.80;99.90;;;;;;5083662;28;20052;-62
2022/12/31 09:18:24;;;;;;;2.55;1.10;;;10.80;99.90;;;;;;5085722;28;20131;-63
2022/12/31 09:20:50;;;;;;;1.25;1.10;;;10.90;99.90;;;;;;5084658;28;20673;-62
2022/12/31 09:23:16;;;;;;;1.48;0.85;;;11.00;99.90;;;;;;5086013;28;20060;-63
2022/12/31 09:26:17;;;;;;;1.33;0.70;;;11.10;99.90;;;;;;5083815;28;20161;-62
2022/12/31 09:29:00;;;;;;;1.02;0.90;;;11.20;99.90;;;;;;5089586;28;20655;-62
2022/12/31 09:31:42;;;;;;;0.90;0.90;;;11.30;99.90;;;;;;5090249;28;20089;-62
2022/12/31 09:34:22;;;;;;;1.38;0.70;;;11.40;99.90;;;;;;5080270;28;20043;-62
2022/12/31 09:36:54;;;;;;;0.98;0.70;;;11.50;99.90;;;;;;5087716;28;20521;-62
2022/12/31 09:39:47;;;;;;;0.70;0.70;;;11.50;99.90;;;;;;5089211;28;20482;-62
2022/12/31 09:42:48;;;;;;;0.95;0.82;;;11.60;99.90;;;;;;5080303;28;20064;-62
2022/12/31 09:45:16;;;;;;;0.55;0.55;;;11.70;99.90;;;;;;5088574;28;20044;-63
2022/12/31 09:47:57;;;;;;;0.93;0.65;;;11.70;99.90;;;;;;5077921;28;20494;-62
2022/12/31 09:50:51;;;;;;;1.08;0.70;;;11.70;99.90;;;;;;5088661;28;20075;-63
2022/12/31 09:53:25;;;;;;;0.77;0.60;;;11.80;99.90;;;;;;5088858;28;20091;-62
2022/12/31 09:56:01;;;;;;;3.33;0.60;;;11.80;99.90;;;;;;5083981;28;20054;-63
2022/12/31 09:58:44;;;;;;;1.85;0.93;;;11.80;99.90;;;;;;5085861;28;20098;-63
2022/12/31 10:01:19;;;;;;;2.17;0.70;;;11.90;99.90;;;;;;5086284;28;20564;-63
2022/12/31 10:04:06;;;;;;;2.30;1.77;;;12.00;99.90;;;;;;5087475;28;20044;-63
2022/12/31 10:06:58;;;;;;;2.15;0.90;;;12.10;99.90;;;;;;5088264;28;20101;-64
2022/12/31 10:09:31;;;;;;;4.25;0.93;;;12.10;99.90;;;;;;5086985;28;20059;-62
2022/12/31 10:12:20;;;;;;;0.30;0.30;;;12.20;99.90;;;;;;5088346;28;20418;-67
2022/12/31 10:15:07;;;;;;;1.45;0.60;;;12.20;99.90;;;;;;5080344;28;20071;-63
2022/12/31 10:17:48;;;;;;;0.85;0.60;;;12.20;99.90;;;;;;5083583;28;20127;-63
2022/12/31 10:20:29;;;;;;;1.17;0.68;;;12.20;99.90;;;;;;5087253;28;20039;-63
2022/12/31 10:23:20;;;;;;;0.90;0.73;;;12.30;99.90;;;;;;5080971;28;20063;-63
2022/12/31 10:26:04;;;;;;;0.85;0.43;;;12.30;99.90;;;;;;5079045;28;20127;-64
2022/12/31 10:28:52;;;;;;;2.38;0.70;;;12.30;99.90;;;;;;5082514;28;20048;-63
2022/12/31 10:31:38;;;;;;;1.55;0.38;;;12.40;99.90;;;;;;5089338;28;20040;-63
2022/12/31 10:34:22;;;;;;;1.90;0.47;;;12.50;99.90;;;;;;5087627;28;20048;-63
2022/12/31 10:36:53;;;;;;;3.67;0.50;;;12.60;99.90;;;;;;5089550;28;20044;-63
2022/12/31 10:39:18;;;;;;;3.17;0.60;;;12.60;99.90;;;;;;5081946;28;20398;-63
2022/12/31 10:42:18;;;;;;;2.25;0.55;;;12.80;99.90;;;;;;5088334;28;20036;-63
2022/12/31 10:44:46;;;;;;;3.30;0.50;;;12.80;99.90;;;;;;5084934;28;20051;-63
2022/12/31 10:47:24;;;;;;;3.47;0.57;;;12.90;99.90;;;;;;5087040;28;20040;-63
2022/12/31 10:50:29;;;;;;;3.50;0.57;;;13.00;99.90;;;;;;5081315;28;20044;-63
2022/12/31 10:53:19;;;;;;;0.85;0.30;;;13.10;99.90;;;;;;5087841;28;20047;-63
2022/12/31 10:56:23;;;;;;;2.55;0.55;;;13.20;99.90;;;;;;5081153;28;20039;-62
2022/12/31 10:59:07;;;;;;;7.22;0.93;;;13.30;99.90;;;;;;5087923;28;20040;-63
2022/12/31 11:01:48;;;;;;;5.18;0.82;;;13.40;99.90;;;;;;5079577;28;20120;-63
2022/12/31 11:04:47;;;;;;;1.75;0.30;;;13.50;99.90;;;;;;5087305;28;20132;-62
2022/12/31 11:07:36;;;;;;;3.45;0.90;;;13.50;99.90;;;;;;5087700;28;20113;-63
2022/12/31 11:10:07;;;;;;;6.22;0.82;;;13.60;99.90;;;;;;5082979;28;20059;-63
2022/12/31 11:12:53;;;;;;;5.25;0.75;;;13.60;99.90;;;;;;5085344;28;20040;-63
2022/12/31 11:15:31;;;;;;;5.20;0.80;;;13.70;99.90;;;;;;5088919;28;20044;-63
2022/12/31 11:18:22;;;;;;;3.00;0.68;;;13.70;99.90;;;;;;5085231;28;20047;-63
2022/12/31 11:20:56;;;;;;;;;;;13.70;99.90;;;;;;5073700;28;20048;-63
2022/12/31 11:23:48;;;;;;;9.63;1.10;;;13.70;99.90;;;;;;5087774;28;20354;-64
2022/12/31 11:26:23;;;;;;;5.18;0.68;;;13.70;99.90;;;;;;5085927;28;20596;-63
2022/12/31 11:29:15;;;;;;;8.80;0.82;;;13.80;99.90;;;;;;5086094;28;20044;-63
2022/12/31 11:31:58;;;;;;;7.15;1.10;;;13.90;99.90;;;;;;5070423;28;20049;-63
2022/12/31 11:34:26;;;;;;;10.40;1.05;;;13.90;99.90;;;;;;5067141;28;20137;-65
2022/12/31 11:37:10;;;;;;;8.48;1.10;;;13.90;99.90;;;;;;5087951;28;20036;-63
2022/12/31 11:40:13;;;;;;;5.55;0.90;;;13.90;99.90;;;;;;5081596;28;20076;-63
2022/12/31 11:43:01;;;;;;;5.57;1.10;;;13.90;99.90;;;;;;5084767;28;20089;-63
2022/12/31 11:45:52;;;;;;;4.18;0.60;;;14.00;99.90;;;;;;5074048;28;20055;-63
2022/12/31 11:48:25;;;;;;;2.10;0.20;;;13.90;99.90;;;;;;5084347;28;20169;-63
2022/12/31 11:51:08;;;;;;;4.75;0.70;;;14.00;99.90;;;;;;5083690;28;20044;-63
2022/12/31 11:53:37;;;;;;;7.28;1.55;;;14.00;99.90;;;;;;5086115;28;20058;-64
2022/12/31 11:56:16;;;;;;;2.15;0.47;;;14.00;99.90;;;;;;5085171;28;20129;-64
2022/12/31 11:58:49;;;;;;;8.63;0.90;;;14.00;99.90;;;;;;5085646;28;20089;-64
2022/12/31 12:01:32;;;;;;;5.43;1.20;;;14.00;99.90;;;;;;5084565;28;20044;-62
2022/12/31 12:03:58;;;;;;;3.55;1.20;;;14.00;99.90;;;;;;5085302;28;20028;-63
2022/12/31 12:06:30;;;;;;;4.57;1.00;;;14.00;99.90;;;;;;5086117;28;20324;-63
2022/12/31 12:09:00;;;;;;;3.38;0.75;;;13.90;99.90;;;;;;5084854;28;20043;-73
2022/12/31 12:11:36;;;;;;;7.82;0.75;;;13.90;99.90;;;;;;5084993;28;20032;-63
2022/12/31 12:14:29;;;;;;;0.93;0.35;;;13.90;99.90;;;;;;5081664;28;20524;-63
2022/12/31 12:16:56;;;;;;;4.65;0.85;;;14.00;99.90;;;;;;5075397;28;20291;-71
2022/12/31 12:19:27;;;;;;;1.48;0.50;;;14.00;99.90;;;;;;5068974;28;20063;-63
2022/12/31 12:21:53;;;;;;;8.32;1.02;;;14.10;99.90;;;;;;5084251;28;20032;-63
2022/12/31 12:24:24;;;;;;;4.88;0.30;;;14.10;99.90;;;;;;5081967;28;20052;-67
2022/12/31 12:26:50;;;;;;;1.27;0.30;;;14.10;99.90;;;;;;5073665;28;20512;-63
2022/12/31 12:29:19;;;;;;;2.00;0.57;;;14.10;99.90;;;;;;5073425;28;20091;-63
2022/12/31 12:32:14;;;;;;;2.53;0.73;;;14.10;99.90;;;;;;5080518;28;20051;-63
2022/12/31 12:34:41;;;;;;;4.45;0.93;;;14.00;99.90;;;;;;5069072;28;20040;-63
2022/12/31 12:37:31;;;;;;;5.00;1.05;;;14.00;99.90;;;;;;5080120;28;20482;-63
2022/12/31 12:40:00;;;;;;;3.25;0.98;;;13.90;99.90;;;;;;5084045;28;20074;-73
2022/12/31 12:42:27;;;;;;;2.58;0.50;;;13.90;99.90;;;;;;5087435;28;20046;-64
2022/12/31 12:45:05;;;;;;;1.17;0.52;;;14.00;99.90;;;;;;5084142;28;20126;-63
2022/12/31 12:47:32;;;;;;;2.42;0.90;;;14.00;99.90;;;;;;5085265;28;20109;-63
2022/12/31 12:49:58;;;;;;;5.85;0.80;;;13.90;99.90;;;;;;5084750;28;20098;-68
2022/12/31 12:52:33;;;;;;;5.38;0.82;;;13.90;99.90;;;;;;5084537;28;20056;-63
2022/12/31 12:55:08;;;;;;;2.88;0.70;;;13.90;99.90;;;;;;5056832;28;20054;-63
2022/12/31 12:57:56;;;;;;;3.75;1.00;;;13.90;99.90;;;;;;5087719;28;20119;-63
2022/12/31 13:01:07;;;;;;;2.00;1.00;;;14.00;99.90;;;;;;5089838;28;20126;-63
2022/12/31 13:03:41;;;;;;;;;;;14.00;99.90;;;;;;5048801;28;20091;-63
2022/12/31 13:06:33;;;;;;;3.25;0.93;;;13.90;99.90;;;;;;5076346;28;20101;-63
2022/12/31 13:09:30;;;;;;;4.80;1.02;;;13.90;99.90;;;;;;5089096;28;20375;-63
2022/12/31 13:12:11;;;;;;;2.72;0.73;;;13.90;99.90;;;;;;5050791;28;20040;-79
2022/12/31 13:15:07;;;;;;;3.38;0.82;;;13.80;99.90;;;;;;5075051;28;20051;-64
2022/12/31 13:17:57;;;;;;;7.90;1.27;;;13.80;99.90;;;;;;5073658;28;20048;-76
2022/12/31 13:20:42;;;;;;;;;;;13.80;99.90;;;;;;5091895;28;20127;-63
2022/12/31 13:23:24;;;;;;;0.98;0.52;;;13.70;99.90;;;;;;5075247;28;19924;-63
2022/12/31 13:25:57;;;;;;;5.80;1.13;;;13.70;99.90;;;;;;5088370;28;20063;-67
2022/12/31 13:28:24;;;;;;;3.58;1.08;;;13.80;99.90;;;;;;5070405;28;20056;-64
2022/12/31 13:30:57;;;;;;;5.85;1.15;;;13.80;99.90;;;;;;5081150;28;20094;-63